sensor_id;sensor_type;location;lat;lon;timestamp;P1;durP1;ratioP1;P2;durP2;ratioP2
21546;SDS011;41275;51.912;4.388;2024-01-30T00:04:52;10.48;;;4.43;;
21546;SDS011;41275;51.912;4.388;2024-01-30T00:10:13;11.98;;;4.85;;
21546;SDS011;41275;51.912;4.388;2024-01-30T00:15:35;8.67;;;4.83;;
21546;SDS011;41275;51.912;4.388;2024-01-30T00:20:56;9.90;;;4.63;;
21546;SDS011;41275;51.912;4.388;2024-01-30T00:26:17;7.40;;;4.13;;
21546;SDS011;41275;51.912;4.388;2024-01-30T00:31:38;10.53;;;4.43;;
21546;SDS011;41275;51.912;4.388;2024-01-30T00:37:00;8.00;;;3.83;;
21546;SDS011;41275;51.912;4.388;2024-01-30T00:42:21;8.68;;;4.30;;
21546;SDS011;41275;51.912;4.388;2024-01-30T00:47:44;8.88;;;4.30;;
21546;SDS011;41275;51.912;4.388;2024-01-30T00:53:05;8.48;;;4.10;;
21546;SDS011;41275;51.912;4.388;2024-01-30T00:58:27;7.18;;;4.10;;
21546;SDS011;41275;51.912;4.388;2024-01-30T01:03:48;7.45;;;4.03;;
21546;SDS011;41275;51.912;4.388;2024-01-30T01:09:12;8.40;;;4.20;;
21546;SDS011;41275;51.912;4.388;2024-01-30T01:14:33;11.17;;;4.10;;
21546;SDS011;41275;51.912;4.388;2024-01-30T01:19:55;8.77;;;4.10;;
21546;SDS011;41275;51.912;4.388;2024-01-30T01:25:16;10.13;;;3.83;;
21546;SDS011;41275;51.912;4.388;2024-01-30T01:30:37;7.97;;;3.85;;
21546;SDS011;41275;51.912;4.388;2024-01-30T01:35:59;8.23;;;4.00;;
21546;SDS011;41275;51.912;4.388;2024-01-30T01:41:23;7.83;;;3.97;;
21546;SDS011;41275;51.912;4.388;2024-01-30T01:46:44;8.80;;;3.90;;
21546;SDS011;41275;51.912;4.388;2024-01-30T01:52:06;9.17;;;4.00;;
21546;SDS011;41275;51.912;4.388;2024-01-30T01:57:27;7.13;;;3.90;;
21546;SDS011;41275;51.912;4.388;2024-01-30T02:02:48;10.17;;;4.57;;
21546;SDS011;41275;51.912;4.388;2024-01-30T02:08:10;8.52;;;4.00;;
21546;SDS011;41275;51.912;4.388;2024-01-30T02:13:31;10.30;;;4.20;;
21546;SDS011;41275;51.912;4.388;2024-01-30T02:18:53;9.25;;;4.47;;
21546;SDS011;41275;51.912;4.388;2024-01-30T02:24:14;6.90;;;4.03;;
21546;SDS011;41275;51.912;4.388;2024-01-30T02:29:35;9.23;;;4.13;;
21546;SDS011;41275;51.912;4.388;2024-01-30T02:34:56;7.80;;;3.93;;
21546;SDS011;41275;51.912;4.388;2024-01-30T02:40:17;7.70;;;4.23;;
21546;SDS011;41275;51.912;4.388;2024-01-30T02:45:39;8.77;;;4.05;;
21546;SDS011;41275;51.912;4.388;2024-01-30T02:51:00;8.63;;;3.75;;
21546;SDS011;41275;51.912;4.388;2024-01-30T02:56:21;8.25;;;4.18;;
21546;SDS011;41275;51.912;4.388;2024-01-30T03:01:43;7.43;;;3.83;;
21546;SDS011;41275;51.912;4.388;2024-01-30T03:07:05;9.15;;;4.25;;
21546;SDS011;41275;51.912;4.388;2024-01-30T03:12:26;8.95;;;4.43;;
21546;SDS011;41275;51.912;4.388;2024-01-30T03:17:47;6.67;;;3.80;;
21546;SDS011;41275;51.912;4.388;2024-01-30T03:23:08;7.47;;;4.03;;
21546;SDS011;41275;51.912;4.388;2024-01-30T03:28:29;8.43;;;4.00;;
21546;SDS011;41275;51.912;4.388;2024-01-30T03:33:51;11.15;;;4.65;;
21546;SDS011;41275;51.912;4.388;2024-01-30T03:39:12;9.18;;;4.70;;
21546;SDS011;41275;51.912;4.388;2024-01-30T03:44:33;9.52;;;4.18;;
21546;SDS011;41275;51.912;4.388;2024-01-30T03:49:54;8.37;;;4.27;;
21546;SDS011;41275;51.912;4.388;2024-01-30T03:55:16;9.20;;;4.27;;
21546;SDS011;41275;51.912;4.388;2024-01-30T04:00:37;9.05;;;4.40;;
21546;SDS011;41275;51.912;4.388;2024-01-30T04:05:58;9.07;;;4.68;;
21546;SDS011;41275;51.912;4.388;2024-01-30T04:11:19;6.55;;;3.85;;
21546;SDS011;41275;51.912;4.388;2024-01-30T04:16:41;9.07;;;4.30;;
21546;SDS011;41275;51.912;4.388;2024-01-30T04:22:02;8.93;;;4.60;;
21546;SDS011;41275;51.912;4.388;2024-01-30T04:27:23;9.75;;;4.40;;
21546;SDS011;41275;51.912;4.388;2024-01-30T04:32:46;8.53;;;4.33;;
21546;SDS011;41275;51.912;4.388;2024-01-30T04:38:07;7.88;;;3.88;;
21546;SDS011;41275;51.912;4.388;2024-01-30T04:43:29;7.97;;;4.00;;
21546;SDS011;41275;51.912;4.388;2024-01-30T04:48:51;6.07;;;3.53;;
21546;SDS011;41275;51.912;4.388;2024-01-30T04:54:12;9.67;;;4.30;;
21546;SDS011;41275;51.912;4.388;2024-01-30T04:59:33;8.43;;;4.03;;
21546;SDS011;41275;51.912;4.388;2024-01-30T05:04:54;7.87;;;4.30;;
21546;SDS011;41275;51.912;4.388;2024-01-30T05:10:15;11.10;;;4.70;;
21546;SDS011;41275;51.912;4.388;2024-01-30T05:15:37;10.00;;;4.60;;
21546;SDS011;41275;51.912;4.388;2024-01-30T05:20:58;7.55;;;3.80;;
21546;SDS011;41275;51.912;4.388;2024-01-30T05:26:19;9.98;;;4.10;;
21546;SDS011;41275;51.912;4.388;2024-01-30T05:31:40;10.43;;;4.40;;
21546;SDS011;41275;51.912;4.388;2024-01-30T05:37:02;13.02;;;4.55;;
21546;SDS011;41275;51.912;4.388;2024-01-30T05:42:23;7.35;;;3.95;;
21546;SDS011;41275;51.912;4.388;2024-01-30T05:47:44;9.35;;;4.50;;
21546;SDS011;41275;51.912;4.388;2024-01-30T05:53:06;9.53;;;4.60;;
21546;SDS011;41275;51.912;4.388;2024-01-30T05:58:27;7.77;;;3.87;;
21546;SDS011;41275;51.912;4.388;2024-01-30T06:03:48;11.50;;;4.33;;
21546;SDS011;41275;51.912;4.388;2024-01-30T06:09:09;9.48;;;4.10;;
21546;SDS011;41275;51.912;4.388;2024-01-30T06:14:31;7.57;;;4.03;;
21546;SDS011;41275;51.912;4.388;2024-01-30T06:19:53;7.77;;;4.07;;
21546;SDS011;41275;51.912;4.388;2024-01-30T06:25:15;8.07;;;4.27;;
21546;SDS011;41275;51.912;4.388;2024-01-30T06:30:37;9.77;;;4.00;;
21546;SDS011;41275;51.912;4.388;2024-01-30T06:35:58;8.33;;;3.70;;
21546;SDS011;41275;51.912;4.388;2024-01-30T06:41:19;11.00;;;4.35;;
21546;SDS011;41275;51.912;4.388;2024-01-30T06:46:41;8.68;;;4.30;;
21546;SDS011;41275;51.912;4.388;2024-01-30T06:52:02;8.75;;;4.13;;
21546;SDS011;41275;51.912;4.388;2024-01-30T06:57:23;9.30;;;4.07;;
21546;SDS011;41275;51.912;4.388;2024-01-30T07:02:45;7.13;;;3.90;;
21546;SDS011;41275;51.912;4.388;2024-01-30T07:08:06;7.93;;;3.97;;
21546;SDS011;41275;51.912;4.388;2024-01-30T07:13:28;9.07;;;4.32;;
21546;SDS011;41275;51.912;4.388;2024-01-30T07:18:49;9.32;;;3.75;;
21546;SDS011;41275;51.912;4.388;2024-01-30T07:24:10;8.73;;;3.97;;
21546;SDS011;41275;51.912;4.388;2024-01-30T07:29:32;9.43;;;3.85;;
21546;SDS011;41275;51.912;4.388;2024-01-30T07:34:53;7.40;;;3.67;;
21546;SDS011;41275;51.912;4.388;2024-01-30T07:40:14;9.00;;;4.13;;
21546;SDS011;41275;51.912;4.388;2024-01-30T07:45:35;9.77;;;4.05;;
21546;SDS011;41275;51.912;4.388;2024-01-30T07:50:58;9.53;;;3.83;;
21546;SDS011;41275;51.912;4.388;2024-01-30T07:56:19;9.27;;;4.30;;
21546;SDS011;41275;51.912;4.388;2024-01-30T08:01:41;9.40;;;3.88;;
21546;SDS011;41275;51.912;4.388;2024-01-30T08:07:02;10.50;;;4.00;;
21546;SDS011;41275;51.912;4.388;2024-01-30T08:12:23;9.85;;;4.70;;
21546;SDS011;41275;51.912;4.388;2024-01-30T08:17:44;11.00;;;4.27;;
21546;SDS011;41275;51.912;4.388;2024-01-30T08:23:06;9.70;;;4.00;;
21546;SDS011;41275;51.912;4.388;2024-01-30T08:28:27;8.82;;;4.47;;
21546;SDS011;41275;51.912;4.388;2024-01-30T08:33:48;10.57;;;4.18;;
21546;SDS011;41275;51.912;4.388;2024-01-30T08:39:09;10.70;;;4.78;;
21546;SDS011;41275;51.912;4.388;2024-01-30T08:44:31;11.48;;;4.38;;
21546;SDS011;41275;51.912;4.388;2024-01-30T08:49:52;7.97;;;4.03;;
21546;SDS011;41275;51.912;4.388;2024-01-30T08:55:13;7.78;;;4.07;;
21546;SDS011;41275;51.912;4.388;2024-01-30T09:00:35;9.98;;;4.10;;
21546;SDS011;41275;51.912;4.388;2024-01-30T09:05:56;9.38;;;3.90;;
21546;SDS011;41275;51.912;4.388;2024-01-30T09:11:17;12.38;;;4.40;;
21546;SDS011;41275;51.912;4.388;2024-01-30T09:16:39;8.27;;;3.90;;
21546;SDS011;41275;51.912;4.388;2024-01-30T09:22:00;10.18;;;4.68;;
21546;SDS011;41275;51.912;4.388;2024-01-30T09:27:21;8.98;;;4.10;;
21546;SDS011;41275;51.912;4.388;2024-01-30T09:32:43;11.53;;;4.03;;
21546;SDS011;41275;51.912;4.388;2024-01-30T09:38:04;9.97;;;4.20;;
21546;SDS011;41275;51.912;4.388;2024-01-30T09:43:25;13.60;;;4.53;;
21546;SDS011;41275;51.912;4.388;2024-01-30T09:48:53;9.95;;;3.60;;
21546;SDS011;41275;51.912;4.388;2024-01-30T09:54:16;7.03;;;2.90;;
21546;SDS011;41275;51.912;4.388;2024-01-30T09:59:41;6.53;;;2.45;;
21546;SDS011;41275;51.912;4.388;2024-01-30T10:05:03;7.28;;;1.63;;
21546;SDS011;41275;51.912;4.388;2024-01-30T10:10:24;8.63;;;1.85;;
21546;SDS011;41275;51.912;4.388;2024-01-30T10:15:47;6.97;;;1.70;;
21546;SDS011;41275;51.912;4.388;2024-01-30T10:21:08;3.63;;;1.20;;
21546;SDS011;41275;51.912;4.388;2024-01-30T10:26:30;8.85;;;1.35;;
21546;SDS011;41275;51.912;4.388;2024-01-30T10:32:00;3.53;;;1.10;;
21546;SDS011;41275;51.912;4.388;2024-01-30T10:37:22;3.80;;;1.55;;
21546;SDS011;41275;51.912;4.388;2024-01-30T10:42:46;5.07;;;1.48;;
21546;SDS011;41275;51.912;4.388;2024-01-30T10:48:09;1.98;;;0.90;;
21546;SDS011;41275;51.912;4.388;2024-01-30T10:53:31;2.90;;;1.00;;
21546;SDS011;41275;51.912;4.388;2024-01-30T10:58:53;3.42;;;0.90;;
21546;SDS011;41275;51.912;4.388;2024-01-30T11:04:16;2.85;;;0.70;;
21546;SDS011;41275;51.912;4.388;2024-01-30T11:09:37;2.38;;;0.80;;
21546;SDS011;41275;51.912;4.388;2024-01-30T11:20:30;7.40;;;1.10;;
21546;SDS011;41275;51.912;4.388;2024-01-30T11:25:56;5.60;;;0.90;;
21546;SDS011;41275;51.912;4.388;2024-01-30T11:31:18;2.80;;;0.50;;
21546;SDS011;41275;51.912;4.388;2024-01-30T11:36:39;8.15;;;0.90;;
21546;SDS011;41275;51.912;4.388;2024-01-30T11:42:04;7.43;;;0.93;;
21546;SDS011;41275;51.912;4.388;2024-01-30T11:47:28;3.53;;;0.63;;
21546;SDS011;41275;51.912;4.388;2024-01-30T11:52:50;3.17;;;0.75;;
21546;SDS011;41275;51.912;4.388;2024-01-30T11:58:11;4.15;;;0.70;;
21546;SDS011;41275;51.912;4.388;2024-01-30T12:03:32;2.35;;;0.60;;
21546;SDS011;41275;51.912;4.388;2024-01-30T12:08:57;3.85;;;0.70;;
21546;SDS011;41275;51.912;4.388;2024-01-30T12:14:24;4.20;;;0.90;;
21546;SDS011;41275;51.912;4.388;2024-01-30T12:19:46;3.77;;;0.47;;
21546;SDS011;41275;51.912;4.388;2024-01-30T12:25:11;5.40;;;0.60;;
21546;SDS011;41275;51.912;4.388;2024-01-30T12:30:34;10.25;;;1.02;;
21546;SDS011;41275;51.912;4.388;2024-01-30T12:35:56;6.60;;;1.02;;
21546;SDS011;41275;51.912;4.388;2024-01-30T12:41:17;4.05;;;0.70;;
21546;SDS011;41275;51.912;4.388;2024-01-30T12:46:40;4.30;;;0.93;;
21546;SDS011;41275;51.912;4.388;2024-01-30T12:52:01;5.20;;;1.02;;
21546;SDS011;41275;51.912;4.388;2024-01-30T12:57:23;6.03;;;0.85;;
21546;SDS011;41275;51.912;4.388;2024-01-30T13:02:44;6.40;;;1.20;;
21546;SDS011;41275;51.912;4.388;2024-01-30T13:08:06;5.32;;;1.10;;
21546;SDS011;41275;51.912;4.388;2024-01-30T13:13:27;5.82;;;0.88;;
21546;SDS011;41275;51.912;4.388;2024-01-30T13:18:48;2.60;;;0.88;;
21546;SDS011;41275;51.912;4.388;2024-01-30T13:24:09;5.25;;;0.80;;
21546;SDS011;41275;51.912;4.388;2024-01-30T13:29:31;7.00;;;1.25;;
21546;SDS011;41275;51.912;4.388;2024-01-30T13:34:52;7.00;;;1.40;;
21546;SDS011;41275;51.912;4.388;2024-01-30T13:40:13;4.53;;;1.02;;
21546;SDS011;41275;51.912;4.388;2024-01-30T13:45:35;4.18;;;1.25;;
21546;SDS011;41275;51.912;4.388;2024-01-30T13:50:56;3.58;;;1.00;;
21546;SDS011;41275;51.912;4.388;2024-01-30T13:56:17;9.10;;;1.63;;
21546;SDS011;41275;51.912;4.388;2024-01-30T14:01:38;4.75;;;1.35;;
21546;SDS011;41275;51.912;4.388;2024-01-30T14:07:00;7.03;;;1.33;;
21546;SDS011;41275;51.912;4.388;2024-01-30T14:12:21;4.72;;;1.50;;
21546;SDS011;41275;51.912;4.388;2024-01-30T14:17:42;7.45;;;1.35;;
21546;SDS011;41275;51.912;4.388;2024-01-30T14:23:04;7.75;;;1.98;;
21546;SDS011;41275;51.912;4.388;2024-01-30T14:28:25;4.05;;;1.35;;
21546;SDS011;41275;51.912;4.388;2024-01-30T14:33:46;5.68;;;1.38;;
21546;SDS011;41275;51.912;4.388;2024-01-30T14:39:07;7.28;;;1.67;;
21546;SDS011;41275;51.912;4.388;2024-01-30T14:44:29;5.47;;;1.50;;
21546;SDS011;41275;51.912;4.388;2024-01-30T14:49:51;3.37;;;1.90;;
21546;SDS011;41275;51.912;4.388;2024-01-30T14:55:13;4.70;;;2.20;;
21546;SDS011;41275;51.912;4.388;2024-01-30T15:00:34;6.90;;;2.20;;
21546;SDS011;41275;51.912;4.388;2024-01-30T15:05:59;6.37;;;2.67;;
21546;SDS011;41275;51.912;4.388;2024-01-30T15:11:20;5.27;;;2.77;;
21546;SDS011;41275;51.912;4.388;2024-01-30T15:16:41;6.30;;;2.50;;
21546;SDS011;41275;51.912;4.388;2024-01-30T15:22:03;6.30;;;2.50;;
21546;SDS011;41275;51.912;4.388;2024-01-30T15:27:24;7.28;;;2.83;;
21546;SDS011;41275;51.912;4.388;2024-01-30T15:32:46;12.00;;;2.75;;
21546;SDS011;41275;51.912;4.388;2024-01-30T15:38:07;6.40;;;2.10;;
21546;SDS011;41275;51.912;4.388;2024-01-30T15:43:29;4.10;;;1.90;;
21546;SDS011;41275;51.912;4.388;2024-01-30T15:48:53;2.53;;;1.42;;
21546;SDS011;41275;51.912;4.388;2024-01-30T15:54:14;7.32;;;1.80;;
21546;SDS011;41275;51.912;4.388;2024-01-30T15:59:36;5.20;;;1.60;;
21546;SDS011;41275;51.912;4.388;2024-01-30T16:04:57;4.63;;;1.77;;
21546;SDS011;41275;51.912;4.388;2024-01-30T16:10:18;5.43;;;1.93;;
21546;SDS011;41275;51.912;4.388;2024-01-30T16:15:40;3.50;;;1.58;;
21546;SDS011;41275;51.912;4.388;2024-01-30T16:21:03;3.45;;;1.60;;
21546;SDS011;41275;51.912;4.388;2024-01-30T16:26:25;3.75;;;1.95;;
21546;SDS011;41275;51.912;4.388;2024-01-30T16:31:47;4.53;;;2.07;;
21546;SDS011;41275;51.912;4.388;2024-01-30T16:37:08;4.10;;;1.20;;
21546;SDS011;41275;51.912;4.388;2024-01-30T16:42:30;3.27;;;1.60;;
21546;SDS011;41275;51.912;4.388;2024-01-30T16:47:51;3.87;;;1.00;;
21546;SDS011;41275;51.912;4.388;2024-01-30T16:53:12;5.93;;;1.27;;
21546;SDS011;41275;51.912;4.388;2024-01-30T16:58:33;5.63;;;1.50;;
21546;SDS011;41275;51.912;4.388;2024-01-30T17:03:54;6.47;;;1.70;;
21546;SDS011;41275;51.912;4.388;2024-01-30T17:09:16;6.40;;;1.30;;
21546;SDS011;41275;51.912;4.388;2024-01-30T17:14:37;5.67;;;1.60;;
21546;SDS011;41275;51.912;4.388;2024-01-30T17:20:00;8.57;;;1.58;;
21546;SDS011;41275;51.912;4.388;2024-01-30T17:25:21;9.90;;;2.63;;
21546;SDS011;41275;51.912;4.388;2024-01-30T17:30:42;10.27;;;2.72;;
21546;SDS011;41275;51.912;4.388;2024-01-30T17:36:04;10.75;;;1.73;;
21546;SDS011;41275;51.912;4.388;2024-01-30T17:41:25;9.60;;;1.52;;
21546;SDS011;41275;51.912;4.388;2024-01-30T17:46:47;10.60;;;2.00;;
21546;SDS011;41275;51.912;4.388;2024-01-30T17:52:08;8.10;;;2.13;;
21546;SDS011;41275;51.912;4.388;2024-01-30T17:57:30;13.95;;;1.75;;
21546;SDS011;41275;51.912;4.388;2024-01-30T18:02:51;9.27;;;1.48;;
21546;SDS011;41275;51.912;4.388;2024-01-30T18:08:13;12.20;;;1.75;;
21546;SDS011;41275;51.912;4.388;2024-01-30T18:13:34;9.43;;;1.60;;
21546;SDS011;41275;51.912;4.388;2024-01-30T18:18:56;7.35;;;1.45;;
21546;SDS011;41275;51.912;4.388;2024-01-30T18:24:17;8.65;;;1.13;;
21546;SDS011;41275;51.912;4.388;2024-01-30T18:29:38;15.07;;;4.25;;
21546;SDS011;41275;51.912;4.388;2024-01-30T18:35:00;10.50;;;3.75;;
21546;SDS011;41275;51.912;4.388;2024-01-30T18:40:21;9.90;;;2.20;;
21546;SDS011;41275;51.912;4.388;2024-01-30T18:45:50;8.70;;;1.35;;
21546;SDS011;41275;51.912;4.388;2024-01-30T18:51:13;7.63;;;1.30;;
21546;SDS011;41275;51.912;4.388;2024-01-30T18:56:38;9.60;;;1.42;;
21546;SDS011;41275;51.912;4.388;2024-01-30T19:02:00;10.50;;;1.80;;
21546;SDS011;41275;51.912;4.388;2024-01-30T19:07:21;5.40;;;1.95;;
21546;SDS011;41275;51.912;4.388;2024-01-30T19:12:42;10.77;;;2.70;;
21546;SDS011;41275;51.912;4.388;2024-01-30T19:18:05;9.10;;;1.50;;
21546;SDS011;41275;51.912;4.388;2024-01-30T19:23:27;5.93;;;1.52;;
21546;SDS011;41275;51.912;4.388;2024-01-30T19:28:48;10.53;;;1.20;;
21546;SDS011;41275;51.912;4.388;2024-01-30T19:34:10;5.50;;;0.82;;
21546;SDS011;41275;51.912;4.388;2024-01-30T19:39:31;14.40;;;1.35;;
21546;SDS011;41275;51.912;4.388;2024-01-30T19:44:52;8.90;;;1.38;;
21546;SDS011;41275;51.912;4.388;2024-01-30T19:50:13;6.43;;;1.20;;
21546;SDS011;41275;51.912;4.388;2024-01-30T19:55:35;7.40;;;1.15;;
21546;SDS011;41275;51.912;4.388;2024-01-30T20:00:56;7.35;;;0.88;;
21546;SDS011;41275;51.912;4.388;2024-01-30T20:06:17;4.10;;;0.77;;
21546;SDS011;41275;51.912;4.388;2024-01-30T20:11:38;10.07;;;1.00;;
21546;SDS011;41275;51.912;4.388;2024-01-30T20:17:00;5.10;;;0.98;;
21546;SDS011;41275;51.912;4.388;2024-01-30T20:22:24;4.95;;;0.90;;
21546;SDS011;41275;51.912;4.388;2024-01-30T20:27:45;6.05;;;1.27;;
21546;SDS011;41275;51.912;4.388;2024-01-30T20:33:07;5.28;;;1.20;;
21546;SDS011;41275;51.912;4.388;2024-01-30T20:38:34;5.50;;;0.85;;
21546;SDS011;41275;51.912;4.388;2024-01-30T20:43:57;2.73;;;0.53;;
21546;SDS011;41275;51.912;4.388;2024-01-30T20:49:18;8.00;;;1.03;;
21546;SDS011;41275;51.912;4.388;2024-01-30T20:54:39;4.65;;;0.93;;
21546;SDS011;41275;51.912;4.388;2024-01-30T21:00:01;2.00;;;0.73;;
21546;SDS011;41275;51.912;4.388;2024-01-30T21:05:22;4.43;;;0.82;;
21546;SDS011;41275;51.912;4.388;2024-01-30T21:10:44;3.15;;;0.77;;
21546;SDS011;41275;51.912;4.388;2024-01-30T21:16:06;3.45;;;0.80;;
21546;SDS011;41275;51.912;4.388;2024-01-30T21:21:27;4.32;;;0.77;;
21546;SDS011;41275;51.912;4.388;2024-01-30T21:26:49;4.40;;;1.08;;
21546;SDS011;41275;51.912;4.388;2024-01-30T21:32:11;3.13;;;0.57;;
21546;SDS011;41275;51.912;4.388;2024-01-30T21:37:33;4.95;;;0.70;;
21546;SDS011;41275;51.912;4.388;2024-01-30T21:42:54;3.75;;;0.70;;
21546;SDS011;41275;51.912;4.388;2024-01-30T21:48:15;6.57;;;1.10;;
21546;SDS011;41275;51.912;4.388;2024-01-30T21:53:37;4.70;;;0.80;;
21546;SDS011;41275;51.912;4.388;2024-01-30T21:58:58;5.35;;;0.80;;
21546;SDS011;41275;51.912;4.388;2024-01-30T22:04:19;4.05;;;0.65;;
21546;SDS011;41275;51.912;4.388;2024-01-30T22:09:42;3.03;;;0.75;;
21546;SDS011;41275;51.912;4.388;2024-01-30T22:15:03;2.28;;;0.47;;
21546;SDS011;41275;51.912;4.388;2024-01-30T22:20:25;3.20;;;0.30;;
21546;SDS011;41275;51.912;4.388;2024-01-30T22:25:46;3.77;;;0.60;;
21546;SDS011;41275;51.912;4.388;2024-01-30T22:31:07;6.40;;;0.60;;
21546;SDS011;41275;51.912;4.388;2024-01-30T22:36:29;2.33;;;0.23;;
21546;SDS011;41275;51.912;4.388;2024-01-30T22:41:51;1.65;;;0.50;;
21546;SDS011;41275;51.912;4.388;2024-01-30T22:47:12;2.10;;;0.30;;
21546;SDS011;41275;51.912;4.388;2024-01-30T22:52:34;1.48;;;0.20;;
21546;SDS011;41275;51.912;4.388;2024-01-30T22:57:55;3.67;;;0.40;;
21546;SDS011;41275;51.912;4.388;2024-01-30T23:03:16;3.40;;;0.32;;
21546;SDS011;41275;51.912;4.388;2024-01-30T23:08:38;3.20;;;0.50;;
21546;SDS011;41275;51.912;4.388;2024-01-30T23:13:59;1.67;;;0.43;;
21546;SDS011;41275;51.912;4.388;2024-01-30T23:19:20;2.17;;;0.50;;
21546;SDS011;41275;51.912;4.388;2024-01-30T23:24:41;1.90;;;0.33;;
21546;SDS011;41275;51.912;4.388;2024-01-30T23:30:03;0.70;;;0.27;;
21546;SDS011;41275;51.912;4.388;2024-01-30T23:35:24;4.72;;;0.60;;
21546;SDS011;41275;51.912;4.388;2024-01-30T23:40:45;0.90;;;0.40;;
21546;SDS011;41275;51.912;4.388;2024-01-30T23:46:09;2.85;;;0.55;;
21546;SDS011;41275;51.912;4.388;2024-01-30T23:51:30;2.40;;;0.40;;
21546;SDS011;41275;51.912;4.388;2024-01-30T23:56:51;1.48;;;0.30;;
